Time;durP1;ratioP1;P1;durP2;ratioP2;P2;SDS_P1;SDS_P2;PMS_P1;PMS_P2;Temp;Humidity;BMP_temperature;BMP_pressure;BME280_temperature;BME280_humidity;BME280_pressure;Samples;Min_cycle;Max_cycle;Signal;HPM_P1;HPM_P2
2023/06/22 00:01:09;;;;;;;15.93;8.50;;;;;;;30.41;37.64;102027.09;5089703;28;20153;-71
2023/06/22 00:03:35;;;;;;;16.67;8.70;;;;;;;30.50;37.98;102041.75;5074522;28;20463;-72
2023/06/22 00:06:00;;;;;;;13.88;8.50;;;;;;;30.66;36.87;102031.50;5091142;28;20016;-72
2023/06/22 00:08:26;;;;;;;16.25;8.82;;;;;;;30.86;36.93;102029.97;5071382;28;20033;-72
2023/06/22 00:10:51;;;;;;;14.02;8.70;;;;;;;30.39;37.82;102045.22;5082807;28;20075;-72
2023/06/22 00:13:17;;;;;;;16.90;9.10;;;;;;;30.41;37.73;102027.09;5071033;28;20475;-72
2023/06/22 00:15:43;;;;;;;15.65;8.70;;;;;;;30.55;37.15;102032.31;5068833;28;20162;-72
2023/06/22 00:18:10;;;;;;;16.17;9.68;;;;;;;30.89;36.82;102027.03;5087418;28;20111;-72
2023/06/22 00:20:39;;;;;;;17.67;9.07;;;;;;;30.33;37.97;102019.59;5056341;28;20039;-72
2023/06/22 00:23:09;;;;;;;17.27;9.38;;;;;;;30.22;37.92;102023.09;5053582;28;20035;-73
2023/06/22 00:25:41;;;;;;;16.40;9.10;;;;;;;30.26;37.91;102027.28;5053641;28;20028;-72
2023/06/22 00:28:07;;;;;;;13.82;9.10;;;;;;;30.17;38.17;102019.91;5068287;28;20032;-72
2023/06/22 00:30:33;;;;;;;17.88;8.93;;;;;;;30.03;38.65;102017.38;5092102;28;20028;-73
2023/06/22 00:32:59;;;;;;;17.17;9.73;;;;;;;30.01;38.28;102011.25;5072705;28;20341;-73
2023/06/22 00:35:28;;;;;;;16.63;8.63;;;;;;;30.43;37.71;102003.56;5056347;28;20064;-73
2023/06/22 00:38:02;;;;;;;16.67;9.88;;;;;;;29.87;38.56;102002.34;5053044;28;20305;-73
2023/06/22 00:40:31;;;;;;;16.98;10.35;;;;;;;29.51;39.64;102004.03;5071560;28;20035;-74
2023/06/22 00:42:57;;;;;;;16.85;9.32;;;;;;;29.50;39.62;102005.00;5052792;28;20028;-72
2023/06/22 00:45:24;;;;;;;15.68;9.82;;;;;;;28.96;40.51;101999.84;5071270;28;20032;-72
2023/06/22 00:47:55;;;;;;;16.50;8.93;;;;;;;29.30;39.90;101998.34;5056997;28;20035;-72
2023/06/22 00:50:22;;;;;;;18.92;10.30;;;;;;;29.16;40.46;101996.63;5072673;28;20059;-71
2023/06/22 00:52:52;;;;;;;18.13;10.00;;;;;;;28.72;41.29;102001.44;5072986;28;20039;-71
2023/06/22 00:55:18;;;;;;;16.55;9.88;;;;;;;29.46;39.74;102003.50;5058673;28;20032;-72
2023/06/22 00:57:47;;;;;;;16.77;9.68;;;;;;;29.35;39.26;102000.72;5088092;28;20472;-72
2023/06/22 01:00:14;;;;;;;19.23;9.77;;;;;;;29.17;40.19;101998.34;5074208;28;20382;-72
2023/06/22 01:02:41;;;;;;;18.95;9.48;;;;;;;29.17;40.18;101998.34;5071036;28;20077;-72
2023/06/22 01:05:07;;;;;;;14.45;8.85;;;;;;;29.22;40.06;101998.88;5052013;28;20032;-72
2023/06/22 01:07:43;;;;;;;18.15;10.52;;;;;;;29.87;38.89;101991.56;5053153;28;20581;-73
2023/06/22 01:10:32;;;;;;;16.88;9.32;;;;;;;29.46;39.43;101992.72;5070880;28;20492;-71
2023/06/22 01:13:19;;;;;;;14.80;9.55;;;;;;;29.45;39.51;101996.41;5052437;28;20040;-72
2023/06/22 01:15:53;;;;;;;16.70;8.80;;;;;;;29.50;39.43;101993.34;5052653;28;20063;-72
2023/06/22 01:18:20;;;;;;;16.00;9.38;;;;;;;29.31;40.04;101988.47;5068992;28;20052;-72
2023/06/22 01:20:47;;;;;;;20.27;9.80;;;;;;;29.33;39.66;101986.50;5090076;28;20039;-73
2023/06/22 01:23:33;;;;;;;17.35;9.18;;;;;;;29.71;38.94;101977.47;5081049;28;20028;-73
2023/06/22 01:26:36;;;;;;;16.50;8.77;;;;;;;29.71;38.80;101986.41;5051592;28;20028;-73
2023/06/22 01:29:04;;;;;;;15.65;9.57;;;;;;;29.36;39.42;101991.66;5079442;28;20079;-73
2023/06/22 01:31:32;;;;;;;15.82;9.27;;;;;;;28.97;40.41;101988.13;5072505;28;20521;-72
2023/06/22 01:34:01;;;;;;;19.33;10.45;;;;;;;28.56;41.27;101992.69;5065416;28;20399;-72
2023/06/22 01:36:27;;;;;;;19.08;10.40;;;;;;;28.89;40.46;101994.03;5067431;28;20078;-72
2023/06/22 01:38:54;;;;;;;16.23;9.10;;;;;;;29.05;40.66;101999.22;5051714;28;20028;-73
2023/06/22 01:41:20;;;;;;;16.92;10.32;;;;;;;29.43;39.66;101998.34;5052307;28;20017;-72
2023/06/22 01:43:47;;;;;;;22.08;11.13;;;;;;;29.09;39.97;101996.19;5060507;28;20387;-72
2023/06/22 01:46:13;;;;;;;19.58;10.95;;;;;;;28.70;41.01;101986.38;5087147;28;20361;-73
2023/06/22 01:48:39;;;;;;;18.45;10.98;;;;;;;28.89;40.65;101992.22;5070218;28;20099;-73
2023/06/22 01:51:05;;;;;;;20.63;11.60;;;;;;;29.31;39.78;101983.09;5070456;28;20025;-71
2023/06/22 01:53:31;;;;;;;21.20;10.85;;;;;;;28.89;40.43;101994.91;5051736;28;20483;-73
2023/06/22 01:55:57;;;;;;;20.23;10.35;;;;;;;29.48;39.07;101984.53;5058417;28;20389;-73
2023/06/22 01:58:27;;;;;;;18.38;11.00;;;;;;;29.06;40.33;101987.50;5072826;28;20027;-72
2023/06/22 02:01:06;;;;;;;18.50;10.68;;;;;;;29.24;39.91;101979.94;5088923;28;20169;-72
2023/06/22 02:03:37;;;;;;;17.73;10.20;;;;;;;29.32;39.96;101984.78;5063975;28;20032;-72
2023/06/22 02:06:17;;;;;;;20.48;11.52;;;;;;;29.19;39.67;101980.25;5070360;28;20024;-72
2023/06/22 02:08:57;;;;;;;22.90;12.23;;;;;;;29.21;39.67;101977.44;5051680;28;20052;-73
2023/06/22 02:11:25;;;;;;;22.90;11.77;;;;;;;28.82;40.31;101980.16;5062890;28;20084;-72
2023/06/22 02:13:51;;;;;;;21.55;11.30;;;;;;;29.19;39.75;101979.38;5069619;28;20020;-72
2023/06/22 02:16:17;;;;;;;23.73;11.85;;;;;;;29.28;39.88;101976.94;5060108;28;20060;-72
2023/06/22 02:18:50;;;;;;;20.63;12.13;;;;;;;29.23;40.00;101983.59;5072331;28;20076;-72
2023/06/22 02:21:20;;;;;;;23.52;13.00;;;;;;;28.87;40.74;101980.69;5071968;28;20027;-73
2023/06/22 02:23:45;;;;;;;20.60;11.45;;;;;;;29.14;40.42;101977.03;5074458;28;20107;-72
2023/06/22 02:26:11;;;;;;;22.65;12.60;;;;;;;29.09;40.57;101968.41;5077773;28;20043;-72
2023/06/22 02:28:37;;;;;;;20.45;11.60;;;;;;;28.99;40.33;101970.91;5088829;28;20103;-72
2023/06/22 02:31:02;;;;;;;22.05;12.95;;;;;;;28.64;41.53;101963.47;5070350;28;20575;-72
2023/06/22 02:33:28;;;;;;;27.83;13.50;;;;;;;28.93;40.87;101958.75;5052307;28;20017;-72
2023/06/22 02:35:53;;;;;;;22.02;12.57;;;;;;;28.73;41.46;101959.28;5085452;28;20472;-72
2023/06/22 02:38:19;;;;;;;24.52;12.75;;;;;;;28.08;42.16;101956.44;5072129;28;20016;-73
2023/06/22 02:40:45;;;;;;;25.45;13.52;;;;;;;28.32;42.21;101962.97;5089110;28;20032;-72
2023/06/22 02:43:11;;;;;;;24.42;14.43;;;;;;;28.43;42.00;101960.41;5071423;28;20024;-72
2023/06/22 02:45:36;;;;;;;23.40;12.98;;;;;;;28.91;40.98;101960.69;5086032;28;20035;-73
2023/06/22 02:48:02;;;;;;;25.58;14.07;;;;;;;28.80;41.04;101968.66;5069551;28;20082;-72
2023/06/22 02:50:27;;;;;;;30.50;15.60;;;;;;;28.79;41.18;101966.06;5051481;28;20032;-72
2023/06/22 02:52:52;;;;;;;33.60;15.40;;;;;;;28.79;41.17;101972.28;5064465;28;20028;-72
2023/06/22 02:55:18;;;;;;;24.52;13.18;;;;;;;28.98;41.28;101971.03;5060246;28;20576;-73
2023/06/22 02:57:44;;;;;;;24.38;13.52;;;;;;;28.93;40.87;101974.91;5072120;28;20028;-74
2023/06/22 03:00:20;;;;;;;26.10;13.80;;;;;;;28.94;41.11;101981.13;5055886;28;20031;-73
2023/06/22 03:02:47;;;;;;;24.65;14.15;;;;;;;28.90;41.13;101976.94;5055398;28;20032;-74
2023/06/22 03:05:13;;;;;;;24.10;13.40;;;;;;;28.93;40.63;101974.91;5075154;28;20027;-73
2023/06/22 03:07:42;;;;;;;22.80;12.02;;;;;;;28.77;41.44;101985.00;5059991;28;20033;-73
2023/06/22 03:10:12;;;;;;;24.88;13.95;;;;;;;29.01;40.71;101986.94;5055411;28;20078;-73
2023/06/22 03:12:38;;;;;;;23.33;13.07;;;;;;;28.85;40.60;101988.03;5073015;28;20028;-73
2023/06/22 03:15:09;;;;;;;26.02;14.05;;;;;;;29.29;40.03;101975.09;5055432;28;20203;-73
2023/06/22 03:17:35;;;;;;;26.92;13.25;;;;;;;29.10;40.31;101959.38;5064018;28;20088;-71
2023/06/22 03:20:14;;;;;;;22.80;12.65;;;;;;;28.80;41.19;101957.88;5075700;28;20020;-72
2023/06/22 03:22:41;;;;;;;22.50;12.45;;;;;;;28.77;41.23;101952.72;5064469;28;20012;-72
2023/06/22 03:25:12;;;;;;;22.05;12.65;;;;;;;28.79;40.78;101945.41;5074125;28;20052;-72
2023/06/22 03:27:38;;;;;;;24.55;12.73;;;;;;;28.78;41.19;101943.66;5074696;28;20082;-73
2023/06/22 03:30:05;;;;;;;24.52;13.75;;;;;;;28.71;41.46;101942.38;5059216;28;20020;-72
2023/06/22 03:32:31;;;;;;;23.23;13.02;;;;;;;28.65;41.53;101948.22;5071144;28;20024;-72
2023/06/22 03:34:58;;;;;;;24.15;12.50;;;;;;;28.72;41.54;101947.66;5066054;28;20024;-72
2023/06/22 03:37:27;;;;;;;26.30;13.65;;;;;;;28.97;40.69;101945.06;5074866;28;20088;-72
2023/06/22 03:39:53;;;;;;;22.40;13.10;;;;;;;28.65;41.45;101941.00;5059649;28;20028;-71
2023/06/22 03:42:18;;;;;;;21.42;12.43;;;;;;;28.67;41.32;101935.50;5054987;28;20111;-71
2023/06/22 03:44:44;;;;;;;20.38;12.90;;;;;;;28.40;42.34;101941.81;5062025;28;20016;-72
2023/06/22 03:47:09;;;;;;;22.85;13.13;;;;;;;28.56;41.69;101945.16;5055915;28;20463;-72
2023/06/22 03:49:35;;;;;;;23.00;12.32;;;;;;;28.49;41.73;101935.75;5054569;28;20081;-71
2023/06/22 03:52:01;;;;;;;22.90;12.13;;;;;;;28.35;42.14;101933.19;5054848;28;20099;-72
2023/06/22 03:54:28;;;;;;;21.98;12.52;;;;;;;28.47;41.93;101926.97;5053750;28;20024;-72
2023/06/22 03:56:54;;;;;;;20.45;12.30;;;;;;;28.38;42.24;101932.97;5048697;28;20056;-72
2023/06/22 03:59:19;;;;;;;20.77;12.57;;;;;;;29.04;40.72;101933.75;5033982;28;20430;-72
2023/06/22 04:01:44;;;;;;;22.90;12.65;;;;;;;28.74;41.67;101928.72;5052175;28;20102;-72
2023/06/22 04:04:10;;;;;;;20.08;11.15;;;;;;;28.59;41.70;101931.50;5038441;28;20024;-71
2023/06/22 04:06:35;;;;;;;22.85;12.27;;;;;;;28.55;41.76;101929.97;5051100;28;20037;-72
2023/06/22 04:09:01;;;;;;;27.40;12.63;;;;;;;28.44;42.36;101919.13;5034461;28;20021;-71
2023/06/22 04:11:26;;;;;;;25.77;13.40;;;;;;;28.69;41.65;101928.19;5034548;28;20029;-72
2023/06/22 04:13:52;;;;;;;26.58;12.60;;;;;;;28.58;42.20;101921.69;5033947;28;20386;-72
2023/06/22 04:16:17;;;;;;;22.30;12.68;;;;;;;28.64;42.03;101925.81;5052232;28;20041;-72
2023/06/22 04:18:43;;;;;;;25.85;13.43;;;;;;;28.77;41.96;101918.59;5050319;28;20607;-73
2023/06/22 04:21:10;;;;;;;23.30;13.95;;;;;;;28.75;42.18;101917.00;5048976;28;20028;-72
2023/06/22 04:23:36;;;;;;;25.55;13.48;;;;;;;28.68;42.24;101913.88;5060154;28;20032;-71
2023/06/22 04:26:01;;;;;;;23.50;12.50;;;;;;;28.39;43.23;101921.25;5056571;28;20025;-72
2023/06/22 04:28:26;;;;;;;25.02;13.38;;;;;;;28.48;43.31;101926.00;5033559;28;20028;-72
2023/06/22 04:30:52;;;;;;;24.85;14.15;;;;;;;28.47;43.43;101929.66;5047440;28;20024;-72
2023/06/22 04:33:17;;;;;;;27.17;14.73;;;;;;;27.64;45.30;101932.47;5034927;28;20037;-72
2023/06/22 04:35:45;;;;;;;24.15;14.02;;;;;;;27.64;45.61;101937.84;5048027;28;20503;-72
2023/06/22 04:38:13;;;;;;;21.23;12.52;;;;;;;28.19;44.40;101936.91;5054049;28;20032;-72
2023/06/22 04:40:39;;;;;;;23.77;13.40;;;;;;;28.23;44.15;101943.81;5051381;28;20098;-71
2023/06/22 04:43:06;;;;;;;23.15;14.35;;;;;;;28.13;44.86;101942.69;5053264;28;20125;-73
2023/06/22 04:45:32;;;;;;;27.38;13.77;;;;;;;29.31;42.91;101940.00;5056940;28;20047;-72
2023/06/22 04:47:58;;;;;;;22.58;14.43;;;;;;;29.07;42.91;101943.44;5071028;28;20060;-72
2023/06/22 04:50:23;;;;;;;24.23;14.20;;;;;;;29.53;42.13;101940.13;5036761;28;20107;-72
2023/06/22 04:52:50;;;;;;;22.02;13.80;;;;;;;30.28;40.42;101943.56;5050992;28;20385;-72
2023/06/22 04:55:18;;;;;;;21.60;13.05;;;;;;;30.42;40.41;101942.53;5042177;28;20028;-72
2023/06/22 04:57:50;;;;;;;21.27;11.73;;;;;;;31.65;38.21;101947.28;5067477;28;20115;-72
2023/06/22 05:00:17;;;;;;;18.95;11.60;;;;;;;31.58;37.96;101939.63;5061759;28;20029;-73
2023/06/22 05:02:45;;;;;;;21.08;10.98;;;;;;;31.72;37.65;101943.09;5071920;28;20020;-72
2023/06/22 05:05:13;;;;;;;19.02;10.73;;;;;;;31.40;37.68;101941.16;5058014;28;20028;-72
2023/06/22 05:07:43;;;;;;;16.77;10.93;;;;;;;31.69;37.69;101948.75;5065694;28;20043;-72
2023/06/22 05:10:12;;;;;;;19.88;10.60;;;;;;;32.36;37.37;101946.78;5070063;28;20484;-72
2023/06/22 05:12:38;;;;;;;18.90;10.93;;;;;;;32.81;35.45;101936.53;5051908;28;20484;-71
2023/06/22 05:15:04;;;;;;;18.15;11.18;;;;;;;32.14;36.74;101937.75;5055997;28;20028;-72
2023/06/22 05:17:30;;;;;;;17.10;10.13;;;;;;;32.96;35.23;101939.75;5068005;28;20127;-73
2023/06/22 05:19:55;;;;;;;17.05;10.77;;;;;;;34.17;33.45;101939.72;5072475;28;20614;-73
2023/06/22 05:22:21;;;;;;;21.90;10.00;;;;;;;34.45;32.69;101939.84;5054325;28;20032;-72
2023/06/22 05:24:46;;;;;;;14.48;9.65;;;;;;;34.55;32.30;101931.66;5051382;28;20111;-72
2023/06/22 05:27:13;;;;;;;14.82;8.70;;;;;;;34.15;32.84;101939.00;5053037;28;20090;-73
2023/06/22 05:29:39;;;;;;;15.55;8.65;;;;;;;33.52;33.56;101937.50;5069318;28;20473;-72
2023/06/22 05:32:05;;;;;;;13.73;7.97;;;;;;;34.17;32.32;101939.72;5052022;28;20123;-72
2023/06/22 05:34:30;;;;;;;12.68;7.38;;;;;;;33.96;33.25;101942.56;5070564;28;20506;-72
2023/06/22 05:36:58;;;;;;;11.23;6.93;;;;;;;34.10;33.07;101933.13;5072704;28;20260;-73
2023/06/22 05:39:24;;;;;;;12.35;7.15;;;;;;;34.03;32.31;101934.72;5071991;28;20081;-72
2023/06/22 05:41:49;;;;;;;9.18;5.85;;;;;;;32.97;34.21;101930.63;5052466;28;20384;-72
2023/06/22 05:44:15;;;;;;;11.38;6.10;;;;;;;33.72;33.39;101935.69;5052497;28;20036;-73
2023/06/22 05:46:45;;;;;;;9.95;5.78;;;;;;;33.42;33.53;101931.22;5069617;28;20020;-72
2023/06/22 05:49:15;;;;;;;9.23;5.78;;;;;;;33.82;33.33;101938.44;5052735;28;20031;-72
2023/06/22 05:51:41;;;;;;;11.23;6.15;;;;;;;33.68;32.66;101934.25;5076498;28;20028;-71
2023/06/22 05:54:08;;;;;;;9.07;5.88;;;;;;;33.87;33.68;101943.41;5053814;28;20028;-73
2023/06/22 05:56:34;;;;;;;7.63;5.57;;;;;;;34.06;32.81;101934.41;5070143;28;20204;-73
2023/06/22 05:59:00;;;;;;;7.85;5.90;;;;;;;33.78;33.13;101934.28;5051560;28;20147;-73
2023/06/22 06:01:26;;;;;;;8.68;6.30;;;;;;;34.57;31.92;101935.06;5052209;28;20131;-72
2023/06/22 06:03:52;;;;;;;9.63;5.72;;;;;;;32.65;33.95;101936.97;5086396;28;20028;-72
2023/06/22 06:06:20;;;;;;;10.90;5.82;;;;;;;32.74;33.41;101931.78;5067508;28;20029;-73
2023/06/22 06:08:45;;;;;;;9.15;5.82;;;;;;;33.08;33.74;101929.66;5085069;28;20036;-72
2023/06/22 06:11:11;;;;;;;9.70;5.28;;;;;;;33.78;32.04;101934.28;5061542;28;20434;-73
2023/06/22 06:13:36;;;;;;;12.10;5.53;;;;;;;33.35;32.90;101936.34;5064183;28;20016;-73
2023/06/22 06:16:01;;;;;;;9.52;5.50;;;;;;;33.97;32.34;101934.28;5069743;28;20028;-73
2023/06/22 06:18:27;;;;;;;10.45;5.57;;;;;;;33.70;33.11;101934.09;5068222;28;20028;-73
2023/06/22 06:20:52;;;;;;;9.75;5.65;;;;;;;34.01;32.60;101929.44;5051021;28;20017;-73
2023/06/22 06:23:18;;;;;;;10.00;5.18;;;;;;;33.74;32.96;101930.13;5061874;28;20517;-73
2023/06/22 06:25:43;;;;;;;8.07;5.82;;;;;;;33.46;32.99;101935.34;5072679;28;20028;-73
2023/06/22 06:28:09;;;;;;;13.38;6.53;;;;;;;33.92;32.67;101931.16;5069711;28;20039;-74
2023/06/22 06:30:37;;;;;;;10.43;6.45;;;;;;;33.41;33.05;101929.50;5076085;28;20027;-71
2023/06/22 06:33:08;;;;;;;12.18;6.82;;;;;;;33.60;32.86;101924.09;5057418;28;20028;-74
2023/06/22 06:35:37;;;;;;;9.35;6.53;;;;;;;34.30;32.08;101918.56;5061472;28;20119;-74
2023/06/22 06:38:03;;;;;;;10.55;6.57;;;;;;;34.61;31.66;101912.06;5075920;28;20020;-75
2023/06/22 06:40:28;;;;;;;15.18;7.07;;;;;;;33.70;32.51;101912.41;5075938;28;20464;-74
2023/06/22 06:42:54;;;;;;;12.60;6.25;;;;;;;33.93;32.44;101913.03;5054615;28;20328;-73
2023/06/22 06:45:24;;;;;;;9.70;6.28;;;;;;;34.42;32.20;101911.13;5055466;28;20533;-72
2023/06/22 06:47:52;;;;;;;11.20;6.30;;;;;;;35.10;30.47;101911.91;5059252;28;20031;-72
2023/06/22 06:50:18;;;;;;;13.52;6.30;;;;;;;34.72;30.77;101919.16;5075214;28;20051;-73
2023/06/22 06:52:44;;;;;;;10.20;6.15;;;;;;;34.45;30.96;101910.84;5063785;28;20111;-72
2023/06/22 06:55:11;;;;;;;9.30;6.22;;;;;;;35.24;30.47;101922.28;5072689;28;20028;-72
2023/06/22 06:57:41;;;;;;;11.43;6.57;;;;;;;34.17;32.59;101912.59;5072427;28;20040;-73
2023/06/22 07:00:13;;;;;;;9.82;6.40;;;;;;;35.51;30.49;101915.09;5055496;28;20032;-73
2023/06/22 07:02:47;;;;;;;9.13;5.78;;;;;;;35.73;30.05;101918.38;5056539;28;20499;-72
2023/06/22 07:05:13;;;;;;;12.88;5.78;;;;;;;35.91;28.87;101902.94;5055380;28;20109;-72
2023/06/22 07:07:41;;;;;;;10.93;4.93;;;;;;;36.40;28.20;101901.63;5072967;28;20055;-72
2023/06/22 07:10:07;;;;;;;7.25;4.80;;;;;;;36.47;27.49;101894.53;5054082;28;20032;-73
2023/06/22 07:12:33;;;;;;;5.75;4.45;;;;;;;36.65;27.80;101898.00;5061612;28;20035;-73
2023/06/22 07:15:16;;;;;;;7.28;4.55;;;;;;;37.17;26.92;101904.38;5079792;28;20025;-72
2023/06/22 07:17:41;;;;;;;8.95;4.05;;;;;;;38.43;25.16;101897.00;5054665;28;20043;-73
2023/06/22 07:20:11;;;;;;;7.20;4.45;;;;;;;38.73;24.40;101889.09;5072616;28;20024;-73
2023/06/22 07:22:44;;;;;;;5.40;4.00;;;;;;;40.15;24.43;101880.66;5063438;28;20044;-73
2023/06/22 07:25:14;;;;;;;7.55;3.40;;;;;;;39.65;23.87;101888.41;5055137;28;20036;-73
2023/06/22 07:27:46;;;;;;;5.93;3.72;;;;;;;39.79;22.84;101886.75;5053938;28;20028;-73
2023/06/22 07:30:12;;;;;;;4.72;3.20;;;;;;;38.82;23.56;101890.75;5079569;28;20407;-72
2023/06/22 07:32:37;;;;;;;3.75;2.45;;;;;;;38.80;23.06;101884.59;5074247;28;20028;-73
2023/06/22 07:35:04;;;;;;;4.80;3.22;;;;;;;37.22;24.31;101885.69;5063234;28;20017;-73
2023/06/22 07:37:29;;;;;;;4.10;2.63;;;;;;;40.37;21.83;101890.66;5053519;28;20020;-73
2023/06/22 07:40:00;;;;;;;4.15;2.30;;;;;;;41.26;21.27;101886.16;5058503;28;20411;-73
2023/06/22 07:42:26;;;;;;;2.80;1.77;;;;;;;41.38;19.28;101881.03;5054839;28;20124;-73
2023/06/22 07:44:52;;;;;;;3.22;2.15;;;;;;;40.77;20.07;101875.84;5056882;28;20032;-73
2023/06/22 07:47:19;;;;;;;4.07;2.20;;;;;;;38.22;22.41;101882.00;5073541;28;20039;-73
2023/06/22 07:49:45;;;;;;;3.28;2.10;;;;;;;39.98;21.20;101878.06;5057076;28;20745;-73
2023/06/22 07:52:11;;;;;;;5.15;2.30;;;;;;;38.92;21.33;101883.19;5063012;28;20023;-73
2023/06/22 07:54:36;;;;;;;3.33;2.22;;;;;;;39.23;22.33;101879.63;5070734;28;20028;-73
2023/06/22 07:57:02;;;;;;;4.18;2.67;;;;;;;39.01;22.90;101868.47;5066613;28;20127;-73
2023/06/22 07:59:27;;;;;;;4.80;3.60;;;;;;;39.90;22.02;101867.19;5071490;28;20070;-74
2023/06/22 08:01:53;;;;;;;4.90;3.70;;;;;;;38.68;23.64;101859.56;5054280;28;20038;-73
2023/06/22 08:04:19;;;;;;;6.32;4.80;;;;;;;37.63;25.44;101861.25;5055588;28;20404;-73
2023/06/22 08:06:44;;;;;;;7.68;4.57;;;;;;;39.23;23.70;101860.50;5057218;28;20028;-72
2023/06/22 08:09:09;;;;;;;7.63;5.35;;;;;;;39.44;23.84;101859.00;5067389;28;20034;-73
2023/06/22 08:11:37;;;;;;;6.30;4.70;;;;;;;40.11;23.14;101854.69;5073552;28;20111;-74
2023/06/22 08:14:03;;;;;;;7.65;5.53;;;;;;;40.85;22.69;101846.44;5068901;28;20152;-73
2023/06/22 08:16:28;;;;;;;11.13;6.60;;;;;;;38.95;24.78;101850.06;5066295;28;20053;-73
2023/06/22 08:18:54;;;;;;;8.70;6.30;;;;;;;40.00;24.62;101843.13;5053286;28;20032;-74
2023/06/22 08:21:20;;;;;;;13.02;6.53;;;;;;;41.01;23.44;101839.94;5082117;28;20539;-73
2023/06/22 08:23:45;;;;;;;10.75;7.00;;;;;;;39.17;25.59;101850.28;5065753;28;20499;-73
2023/06/22 08:26:10;;;;;;;11.75;6.65;;;;;;;41.37;23.41;101854.63;5064464;28;20028;-73
2023/06/22 08:28:36;;;;;;;10.73;7.22;;;;;;;40.93;22.86;101845.53;5062270;28;20027;-72
2023/06/22 08:31:02;;;;;;;14.02;8.48;;;;;;;39.63;24.87;101847.56;5064904;28;20036;-72
2023/06/22 08:33:28;;;;;;;12.48;7.28;;;;;;;41.78;22.91;101850.34;5080689;28;20032;-72
2023/06/22 08:35:56;;;;;;;11.35;7.80;;;;;;;40.41;24.71;101828.16;5056175;28;20648;-72
2023/06/22 08:38:22;;;;;;;10.02;8.02;;;;;;;42.10;22.75;101837.09;5057500;28;20372;-73
2023/06/22 08:40:47;;;;;;;10.43;8.43;;;;;;;42.04;22.16;101836.88;5058292;28;20028;-73
2023/06/22 08:43:13;;;;;;;13.13;8.25;;;;;;;39.07;25.71;101833.25;5083928;28;20027;-73
2023/06/22 08:45:39;;;;;;;12.80;8.32;;;;;;;41.59;23.40;101830.81;5081182;28;20028;-72
2023/06/22 08:48:05;;;;;;;12.32;7.95;;;;;;;41.45;23.69;101831.72;5066390;28;20032;-73
2023/06/22 08:50:30;;;;;;;12.90;8.80;;;;;;;39.98;24.66;101828.78;5078719;28;20448;-73
2023/06/22 08:52:55;;;;;;;13.65;9.70;;;;;;;38.54;26.44;101836.56;5076822;28;20028;-72
2023/06/22 08:55:21;;;;;;;15.80;9.05;;;;;;;38.90;26.50;101833.34;5074519;28;20031;-72
2023/06/22 08:57:46;;;;;;;13.70;9.20;;;;;;;37.83;26.99;101828.19;5065952;28;20040;-73
2023/06/22 09:00:16;;;;;;;10.95;8.30;;;;;;;37.42;28.21;101830.88;5067841;28;20024;-73
2023/06/22 09:02:42;;;;;;;12.18;7.85;;;;;;;37.99;27.00;101822.72;5088235;28;20093;-72
2023/06/22 09:05:08;;;;;;;14.75;8.82;;;;;;;36.24;29.78;101812.53;5075285;28;20438;-74
2023/06/22 09:07:34;;;;;;;14.27;9.43;;;;;;;36.17;30.01;101815.91;5076343;28;20040;-72
2023/06/22 09:10:00;;;;;;;12.52;7.75;;;;;;;38.19;27.55;101817.69;5055646;28;20031;-74
2023/06/22 09:12:27;;;;;;;12.00;7.95;;;;;;;38.09;27.38;101810.75;5084858;28;20032;-73
2023/06/22 09:14:52;;;;;;;15.90;8.90;;;;;;;37.82;27.10;101821.03;5072061;28;20540;-73
2023/06/22 09:17:18;;;;;;;11.48;8.27;;;;;;;36.93;28.09;101816.13;5061054;28;20032;-74
2023/06/22 09:19:43;;;;;;;11.32;7.72;;;;;;;37.43;27.84;101805.34;5067479;28;20548;-74
2023/06/22 09:22:09;;;;;;;11.48;7.45;;;;;;;36.27;28.49;101810.38;5064941;28;20035;-74
2023/06/22 09:24:36;;;;;;;9.15;6.75;;;;;;;37.62;26.88;101818.63;5090490;28;20076;-73
2023/06/22 09:27:02;;;;;;;9.48;6.75;;;;;;;36.80;27.68;101821.19;5063393;28;20024;-73
2023/06/22 09:29:27;;;;;;;8.60;6.32;;;;;;;38.41;25.46;101819.91;5074302;28;20090;-73
2023/06/22 09:31:56;;;;;;;10.35;6.95;;;;;;;36.72;27.76;101811.09;5063653;28;20016;-73
2023/06/22 09:34:21;;;;;;;9.77;6.80;;;;;;;37.80;26.00;101817.63;5058416;28;20020;-73
2023/06/22 09:36:47;;;;;;;11.65;7.43;;;;;;;35.54;28.87;101816.94;5081510;28;20044;-72
2023/06/22 09:39:12;;;;;;;9.57;6.13;;;;;;;37.45;26.81;101806.00;5062459;28;20023;-73
2023/06/22 09:41:38;;;;;;;9.43;5.65;;;;;;;37.37;26.58;101803.28;5074975;28;20469;-73
2023/06/22 09:44:03;;;;;;;10.52;6.22;;;;;;;36.33;27.52;101809.72;5054322;28;20261;-73
2023/06/22 09:46:29;;;;;;;7.55;4.53;;;;;;;36.38;26.94;101808.38;5070580;28;20048;-73
2023/06/22 09:48:54;;;;;;;8.77;6.00;;;;;;;37.08;26.32;101808.13;5052088;28;20028;-73
2023/06/22 09:51:21;;;;;;;9.40;5.30;;;;;;;37.71;25.24;101796.81;5052511;28;20431;-73
2023/06/22 09:53:47;;;;;;;8.25;5.15;;;;;;;37.57;26.36;101796.47;5062285;28;20032;-73
2023/06/22 09:56:14;;;;;;;10.43;6.22;;;;;;;37.72;26.46;101793.06;5071759;28;20048;-73
2023/06/22 09:58:42;;;;;;;10.68;5.80;;;;;;;37.73;26.09;101789.28;5073092;28;20025;-73
2023/06/22 10:01:07;;;;;;;10.27;6.20;;;;;;;36.90;26.65;101789.22;5057772;28;20055;-73
2023/06/22 10:03:33;;;;;;;7.93;5.63;;;;;;;36.92;25.91;101792.63;5062895;28;20094;-74
2023/06/22 10:05:58;;;;;;;7.88;5.80;;;;;;;36.86;26.74;101787.00;5085318;28;20059;-74
2023/06/22 10:08:24;;;;;;;9.02;5.20;;;;;;;38.07;25.43;101790.97;5051619;28;20027;-73
2023/06/22 10:10:49;;;;;;;12.07;5.97;;;;;;;37.10;26.99;101789.78;5069406;28;20112;-74
2023/06/22 10:13:15;;;;;;;9.27;5.85;;;;;;;36.74;27.33;101794.56;5051451;28;20040;-73
2023/06/22 10:15:41;;;;;;;11.35;6.88;;;;;;;37.10;28.17;101788.94;5051595;28;20046;-73
2023/06/22 10:18:07;;;;;;;10.52;6.55;;;;;;;35.80;28.18;101786.22;5064027;28;20098;-73
2023/06/22 10:20:32;;;;;;;8.13;6.03;;;;;;;36.14;27.47;101794.47;5085925;28;20029;-73
2023/06/22 10:22:58;;;;;;;7.15;5.18;;;;;;;36.83;27.60;101799.06;5069596;28;20499;-72
2023/06/22 10:25:23;;;;;;;8.68;6.00;;;;;;;36.46;28.14;101797.53;5056029;28;20028;-73
2023/06/22 10:27:49;;;;;;;10.50;6.15;;;;;;;37.01;27.17;101798.94;5071108;28;20027;-73
2023/06/22 10:30:14;;;;;;;7.10;5.32;;;;;;;36.84;26.57;101800.78;5087421;28;20058;-73
2023/06/22 10:32:42;;;;;;;9.82;5.68;;;;;;;36.18;27.59;101795.00;5057866;28;20032;-73
2023/06/22 10:35:10;;;;;;;9.07;6.05;;;;;;;36.83;27.29;101793.63;5051655;28;20028;-73
2023/06/22 10:37:36;;;;;;;9.88;6.35;;;;;;;37.20;27.00;101805.97;5051405;28;20040;-73
2023/06/22 10:40:03;;;;;;;10.20;6.57;;;;;;;35.97;27.81;101800.81;5072565;28;20035;-73
2023/06/22 10:42:28;;;;;;;8.32;6.07;;;;;;;36.14;27.73;101804.50;5075456;28;20020;-73
2023/06/22 10:44:54;;;;;;;9.27;5.10;;;;;;;36.11;27.12;101799.38;5053999;28;20202;-73
2023/06/22 10:47:19;;;;;;;7.20;4.80;;;;;;;37.22;26.84;101797.59;5053225;28;20028;-73
2023/06/22 10:49:44;;;;;;;8.63;5.70;;;;;;;36.67;27.33;101805.28;5056896;28;20032;-73
2023/06/22 10:52:10;;;;;;;9.40;6.93;;;;;;;36.34;27.77;101810.56;5058787;28;20567;-73
2023/06/22 10:54:37;;;;;;;10.68;7.40;;;;;;;36.07;29.60;101814.31;5057091;28;20032;-72
2023/06/22 10:57:03;;;;;;;9.48;6.72;;;;;;;35.74;28.72;101814.06;5089928;28;20055;-73
2023/06/22 10:59:29;;;;;;;8.90;6.68;;;;;;;36.33;28.61;101815.19;5072028;28;20032;-73
2023/06/22 11:01:58;;;;;;;9.70;6.97;;;;;;;35.16;29.14;101816.22;5088774;28;20654;-73
2023/06/22 11:04:24;;;;;;;11.07;7.15;;;;;;;35.89;28.65;101801.63;5089792;28;20036;-73
2023/06/22 11:06:49;;;;;;;10.25;7.18;;;;;;;33.51;32.14;101803.03;5089907;28;20073;-73
2023/06/22 11:09:22;;;;;;;12.43;8.75;;;;;;;35.62;30.13;101805.28;5070990;28;20028;-73
2023/06/22 11:11:49;;;;;;;12.55;7.93;;;;;;;36.44;29.99;101807.75;5071387;28;20079;-73
2023/06/22 11:14:14;;;;;;;14.80;9.10;;;;;;;34.35;32.06;101811.47;5074802;28;20020;-73
2023/06/22 11:16:40;;;;;;;12.63;8.82;;;;;;;34.83;31.79;101805.00;5074278;28;20454;-73